Ashley, Ohio
Current Conditions -  °F | °C
As of 6:56 AM on Thursday 23 Oct 2014 (Local Time) from KDLZ Reporting Station
Haze Haze  
Wind Chill:   Ceiling: Unl
Heat Index:   Visibility: 5mi
Dew Point:   Wind: 5mph
Humidity: 100%   Direction: 310°NW
Pressure: 30.23"   Gusts: NA
Location:  40.41°N, 82.96°W
Report Text: KDLZ 231056Z AUTO 31004KT 5SM BR CLR 02/02 A3023 RMK AO2
Loading
Personal Weather Stations






























Interactive Weather Map
Tropical Storm Tracking
New forecast layout! Learn more

10-Day Weather Forecast

Advertisements
Track Severe Weather on mobile